Yeoman, IN

6:27 AM EDT on September 21, 2014 (GMT -0400)
Brookston1 | Change Station
CLOSE
Current Station
Personal Weather Station
Location: Brookston, IN
Elevation: 665 ft
Nearby Weather Stations

Elev 665 ft 40.63 °N, 86.81 °W | Updated 11 minutes ago

Mostly Cloudy
Mostly Cloudy
65.1 °F
Feels Like 65.1 °F
N
19.1
Wind Variable Wind from WNW

Today
High -- | Low -- °F
--% Chance of Precip.
Yesterday
High -- | Low -- °F
Precip. -- in
7:33 AM 7:45 PM
Waning Crescent, 7% visible
Pressure 29.79 in
Visibility 10.0 miles
Clouds Scattered Clouds 1500 ft
Mostly Cloudy 2200 ft
Overcast 3000 ft
Dew Point 63 °F
Humidity 93%
Rainfall 0.09 in
Snow Depth Not available.
UV 0 out of 12
Pollen 6.40 out of 12
Air Quality Not available.
Flu Activity Not available.
METAR KGGP 211015Z AUTO 28011G19KT 10SM SCT015 BKN022 OVC030 18/17 A2979 RMK AO2

More Conditions Fewer Conditions

Pressure 29.79 in
Visibility 10.0 miles
Clouds Scattered Clouds 1500 ft
Mostly Cloudy 2200 ft
Overcast 3000 ft
Dew Point 63 °F
Humidity 93%
Rainfall 0.09 in
Snow Depth Not available.
UV 0 out of 12
Pollen 6.40 out of 12
Air Quality Not available.
Flu Activity Not available.
METAR KGGP 211015Z AUTO 28011G19KT 10SM SCT015 BKN022 OVC030 18/17 A2979 RMK AO2

More Conditions Fewer Conditions

10-Day Weather Forecast

Almanac

Astronomy

Sep. 21, 2014 Rise Set
Actual Time 7:33 AM EDT 7:45 PM EDT
Civil Twilight 7:06 AM EDT 8:12 PM EDT
Nautical Twilight 6:34 AM EDT 8:44 PM EDT
Astronomical Twilight 6:01 AM EDT 9:17 PM EDT
Moon 5:06 AM EDT 6:22 PM EDT
Length of Visible Light 13h 06m
Length of Day
12h 12m
Tomorrow will be 2m 40s shorter.
Waning Crescent, 7% of the Moon is Illuminated
Today
Waning Crescent
Sep 24
New
Oct 1
First Quarter
Oct 8
Full
Oct 15
Last Quarter

Today's Extremes

State Highs State Lows

Community

WunderPhotos

Upload Photos

1,755,107 photos uploaded!

Nearby

Snow Depth

Station Depth Elevation
No new snow has been reported.

Earthquake Activity

City Distance Mag. Time & Date
No recent earthquake activity has been reported nearby.
Minimum magnitude displayed is 2.5.

Coastal Water Temperatures

Place Temperature
No Stations Reporting

Nearby Weather Stations